sensor_id;sensor_type;location;lat;lon;timestamp;pressure;altitude;pressure_sealevel;temperature;humidity
6435;BME280;3250;42.694;23.278;2023-04-03T00:00:31;94220.31;;;8.45;69.10
6435;BME280;3250;42.694;23.278;2023-04-03T00:02:57;94236.06;;;8.45;69.43
6435;BME280;3250;42.694;23.278;2023-04-03T00:05:23;94224.75;;;8.44;70.18
6435;BME280;3250;42.694;23.278;2023-04-03T00:07:48;94212.66;;;8.43;70.07
6435;BME280;3250;42.694;23.278;2023-04-03T00:10:15;94214.47;;;8.43;70.30
6435;BME280;3250;42.694;23.278;2023-04-03T00:12:40;94208.22;;;8.44;70.26
6435;BME280;3250;42.694;23.278;2023-04-03T00:15:06;94190.38;;;8.27;69.97
6435;BME280;3250;42.694;23.278;2023-04-03T00:17:31;94206.88;;;8.35;69.97
6435;BME280;3250;42.694;23.278;2023-04-03T00:19:57;94215.97;;;8.32;70.90
6435;BME280;3250;42.694;23.278;2023-04-03T00:22:23;94201.13;;;8.19;70.76
6435;BME280;3250;42.694;23.278;2023-04-03T00:24:48;94187.41;;;8.17;71.20
6435;BME280;3250;42.694;23.278;2023-04-03T00:27:14;94209.94;;;8.25;71.46
6435;BME280;3250;42.694;23.278;2023-04-03T00:29:40;94211.38;;;8.21;71.70
6435;BME280;3250;42.694;23.278;2023-04-03T00:32:06;94196.50;;;8.15;71.26
6435;BME280;3250;42.694;23.278;2023-04-03T00:34:31;94205.38;;;8.14;70.84
6435;BME280;3250;42.694;23.278;2023-04-03T00:36:57;94210.84;;;8.12;71.15
6435;BME280;3250;42.694;23.278;2023-04-03T00:39:22;94198.16;;;8.09;71.21
6435;BME280;3250;42.694;23.278;2023-04-03T00:41:47;94213.63;;;8.17;71.09
6435;BME280;3250;42.694;23.278;2023-04-03T00:47:11;94202.84;;;8.01;71.20
6435;BME280;3250;42.694;23.278;2023-04-03T00:49:37;94209.50;;;8.03;71.30
6435;BME280;3250;42.694;23.278;2023-04-03T00:52:05;94199.25;;;7.95;71.96
6435;BME280;3250;42.694;23.278;2023-04-03T00:54:32;94213.13;;;8.02;72.32
6435;BME280;3250;42.694;23.278;2023-04-03T00:57:00;94191.25;;;7.83;72.20
6435;BME280;3250;42.694;23.278;2023-04-03T00:59:33;94198.91;;;7.85;72.45
6435;BME280;3250;42.694;23.278;2023-04-03T01:02:00;94196.88;;;7.87;72.30
6435;BME280;3250;42.694;23.278;2023-04-03T01:04:30;94230.00;;;8.06;71.80
6435;BME280;3250;42.694;23.278;2023-04-03T01:06:59;94217.91;;;8.05;71.70
6435;BME280;3250;42.694;23.278;2023-04-03T01:09:26;94198.84;;;7.91;71.75
6435;BME280;3250;42.694;23.278;2023-04-03T01:11:52;94225.81;;;7.99;71.77
6435;BME280;3250;42.694;23.278;2023-04-03T01:14:17;94223.03;;;7.93;72.25
6435;BME280;3250;42.694;23.278;2023-04-03T01:16:42;94223.03;;;7.93;72.05
6435;BME280;3250;42.694;23.278;2023-04-03T01:19:13;94213.63;;;7.86;71.96
6435;BME280;3250;42.694;23.278;2023-04-03T01:22:05;94223.03;;;7.93;71.94
6435;BME280;3250;42.694;23.278;2023-04-03T01:24:39;94196.53;;;7.77;71.93
6435;BME280;3250;42.694;23.278;2023-04-03T01:27:06;94222.28;;;7.86;72.44
6435;BME280;3250;42.694;23.278;2023-04-03T01:29:33;94212.47;;;7.75;72.45
6435;BME280;3250;42.694;23.278;2023-04-03T01:32:00;94225.16;;;7.78;72.66
6435;BME280;3250;42.694;23.278;2023-04-03T01:34:27;94223.94;;;7.74;72.99
6435;BME280;3250;42.694;23.278;2023-04-03T01:36:52;94220.72;;;7.72;72.85
6435;BME280;3250;42.694;23.278;2023-04-03T01:39:18;94159.47;;;7.29;73.33
6435;BME280;3250;42.694;23.278;2023-04-03T01:41:43;94220.34;;;7.62;73.46
6435;BME280;3250;42.694;23.278;2023-04-03T01:44:10;94227.22;;;7.63;73.39
6435;BME280;3250;42.694;23.278;2023-04-03T01:46:35;94207.94;;;7.51;72.72
6435;BME280;3250;42.694;23.278;2023-04-03T01:49:03;94222.00;;;7.56;73.46
6435;BME280;3250;42.694;23.278;2023-04-03T01:51:29;94198.09;;;7.40;73.28
6435;BME280;3250;42.694;23.278;2023-04-03T01:53:54;94222.63;;;7.52;73.30
6435;BME280;3250;42.694;23.278;2023-04-03T01:56:20;94224.06;;;7.48;73.53
6435;BME280;3250;42.694;23.278;2023-04-03T01:58:45;94225.03;;;7.53;73.47
6435;BME280;3250;42.694;23.278;2023-04-03T02:01:11;94230.25;;;7.53;73.47
6435;BME280;3250;42.694;23.278;2023-04-03T02:03:36;94223.25;;;7.47;73.98
6435;BME280;3250;42.694;23.278;2023-04-03T02:06:02;94198.09;;;7.40;74.11
6435;BME280;3250;42.694;23.278;2023-04-03T02:08:27;94197.91;;;7.41;73.54
6435;BME280;3250;42.694;23.278;2023-04-03T02:10:52;94217.16;;;7.53;73.34
6435;BME280;3250;42.694;23.278;2023-04-03T02:13:18;94210.72;;;7.56;73.21
6435;BME280;3250;42.694;23.278;2023-04-03T02:15:44;94214.34;;;7.55;73.16
6435;BME280;3250;42.694;23.278;2023-04-03T02:18:11;94194.91;;;7.31;73.18
6435;BME280;3250;42.694;23.278;2023-04-03T02:20:36;94216.63;;;7.38;73.82
6435;BME280;3250;42.694;23.278;2023-04-03T02:23:02;94222.66;;;7.39;74.07
6435;BME280;3250;42.694;23.278;2023-04-03T02:25:28;94209.97;;;7.36;74.23
6435;BME280;3250;42.694;23.278;2023-04-03T02:27:53;94200.34;;;7.30;74.51
6435;BME280;3250;42.694;23.278;2023-04-03T02:30:19;94203.94;;;7.35;74.30
6435;BME280;3250;42.694;23.278;2023-04-03T02:32:44;94196.94;;;7.29;74.28
6435;BME280;3250;42.694;23.278;2023-04-03T02:35:10;94194.34;;;7.23;74.26
6435;BME280;3250;42.694;23.278;2023-04-03T02:37:36;94207.41;;;7.29;74.34
6435;BME280;3250;42.694;23.278;2023-04-03T02:40:02;94184.09;;;7.14;74.30
6435;BME280;3250;42.694;23.278;2023-04-03T02:42:29;94179.69;;;7.08;74.82
6435;BME280;3250;42.694;23.278;2023-04-03T02:44:54;94176.47;;;7.06;74.57
6435;BME280;3250;42.694;23.278;2023-04-03T02:47:20;94197.97;;;7.22;74.81
6435;BME280;3250;42.694;23.278;2023-04-03T02:49:45;94205.00;;;7.21;74.89
6435;BME280;3250;42.694;23.278;2023-04-03T02:52:12;94199.41;;;7.17;75.00
6435;BME280;3250;42.694;23.278;2023-04-03T02:54:38;94186.75;;;7.08;75.31
6435;BME280;3250;42.694;23.278;2023-04-03T02:57:03;94196.78;;;7.17;75.54
6435;BME280;3250;42.694;23.278;2023-04-03T02:59:29;94141.72;;;6.79;75.49
6435;BME280;3250;42.694;23.278;2023-04-03T03:01:54;94188.13;;;7.10;75.03
6435;BME280;3250;42.694;23.278;2023-04-03T03:04:21;94189.97;;;7.03;75.28
6435;BME280;3250;42.694;23.278;2023-04-03T03:06:46;94188.78;;;6.99;75.96
6435;BME280;3250;42.694;23.278;2023-04-03T03:09:12;94189.34;;;7.01;76.07
6435;BME280;3250;42.694;23.278;2023-04-03T03:11:38;94187.75;;;7.07;75.88
6435;BME280;3250;42.694;23.278;2023-04-03T03:14:04;94172.28;;;6.99;75.04
6435;BME280;3250;42.694;23.278;2023-04-03T03:16:29;94180.28;;;7.04;75.07
6435;BME280;3250;42.694;23.278;2023-04-03T03:18:55;94160.22;;;6.91;75.38
6435;BME280;3250;42.694;23.278;2023-04-03T03:21:21;94180.69;;;7.07;74.97
6435;BME280;3250;42.694;23.278;2023-04-03T03:23:46;94170.22;;;7.01;75.31
6435;BME280;3250;42.694;23.278;2023-04-03T03:26:12;94175.88;;;7.04;74.81
6435;BME280;3250;42.694;23.278;2023-04-03T03:28:38;94186.75;;;7.08;75.16
6435;BME280;3250;42.694;23.278;2023-04-03T03:31:04;94187.75;;;7.07;75.37
6435;BME280;3250;42.694;23.278;2023-04-03T03:33:30;94149.56;;;6.86;75.06
6435;BME280;3250;42.694;23.278;2023-04-03T03:35:56;94183.31;;;7.01;75.29
6435;BME280;3250;42.694;23.278;2023-04-03T03:38:21;94182.75;;;6.99;75.96
6435;BME280;3250;42.694;23.278;2023-04-03T03:40:48;94179.09;;;6.93;76.01
6435;BME280;3250;42.694;23.278;2023-04-03T03:43:14;94188.38;;;6.96;76.00
6435;BME280;3250;42.694;23.278;2023-04-03T03:45:40;94193.41;;;6.91;75.69
6435;BME280;3250;42.694;23.278;2023-04-03T03:48:05;94175.34;;;6.82;76.52
6435;BME280;3250;42.694;23.278;2023-04-03T03:50:30;94179.94;;;6.87;76.48
6435;BME280;3250;42.694;23.278;2023-04-03T03:52:56;94164.25;;;6.80;76.27
6435;BME280;3250;42.694;23.278;2023-04-03T03:55:21;94178.31;;;6.86;76.37
6435;BME280;3250;42.694;23.278;2023-04-03T03:57:47;94203.47;;;6.94;76.32
6435;BME280;3250;42.694;23.278;2023-04-03T04:00:13;94192.00;;;6.88;76.64
6435;BME280;3250;42.694;23.278;2023-04-03T04:02:38;94191.03;;;6.82;77.09
6435;BME280;3250;42.694;23.278;2023-04-03T04:05:04;94191.81;;;6.90;76.49
6435;BME280;3250;42.694;23.278;2023-04-03T04:07:30;94174.91;;;6.86;76.19
6435;BME280;3250;42.694;23.278;2023-04-03T04:09:55;94175.72;;;6.79;76.55
6435;BME280;3250;42.694;23.278;2023-04-03T04:12:21;94173.72;;;6.75;76.63
6435;BME280;3250;42.694;23.278;2023-04-03T04:14:47;94178.75;;;6.83;76.74
6435;BME280;3250;42.694;23.278;2023-04-03T04:17:15;94175.56;;;6.74;76.75
6435;BME280;3250;42.694;23.278;2023-04-03T04:19:40;94178.97;;;6.68;76.96
6435;BME280;3250;42.694;23.278;2023-04-03T04:22:06;94207.91;;;6.87;77.38
6435;BME280;3250;42.694;23.278;2023-04-03T04:24:32;94216.94;;;6.84;77.21
6435;BME280;3250;42.694;23.278;2023-04-03T04:26:57;94198.66;;;6.77;77.43
6435;BME280;3250;42.694;23.278;2023-04-03T04:29:23;94209.13;;;6.91;77.95
6435;BME280;3250;42.694;23.278;2023-04-03T04:31:49;94206.88;;;6.94;77.60
6435;BME280;3250;42.694;23.278;2023-04-03T04:34:14;94200.25;;;6.98;77.41
6435;BME280;3250;42.694;23.278;2023-04-03T04:36:40;94197.81;;;6.97;77.63
6435;BME280;3250;42.694;23.278;2023-04-03T04:39:05;94217.72;;;7.04;77.05
6435;BME280;3250;42.694;23.278;2023-04-03T04:41:31;94213.94;;;7.00;77.40
6435;BME280;3250;42.694;23.278;2023-04-03T04:43:56;94197.03;;;6.90;77.10
6435;BME280;3250;42.694;23.278;2023-04-03T04:46:22;94214.91;;;7.06;77.65
6435;BME280;3250;42.694;23.278;2023-04-03T04:48:47;94219.94;;;7.14;77.29
6435;BME280;3250;42.694;23.278;2023-04-03T04:51:13;94227.75;;;7.20;76.94
6435;BME280;3250;42.694;23.278;2023-04-03T04:53:39;94213.28;;;7.11;76.57
6435;BME280;3250;42.694;23.278;2023-04-03T04:56:05;94235.59;;;7.20;77.07
6435;BME280;3250;42.694;23.278;2023-04-03T04:58:31;94238.66;;;7.17;77.96
6435;BME280;3250;42.694;23.278;2023-04-03T05:01:03;94226.75;;;7.22;77.86
6435;BME280;3250;42.694;23.278;2023-04-03T05:03:30;94227.97;;;7.26;77.21
6435;BME280;3250;42.694;23.278;2023-04-03T05:05:55;94232.75;;;7.29;77.09
6435;BME280;3250;42.694;23.278;2023-04-03T05:08:21;94233.34;;;7.37;77.13
6435;BME280;3250;42.694;23.278;2023-04-03T05:10:46;94226.09;;;7.39;76.37
6435;BME280;3250;42.694;23.278;2023-04-03T05:13:12;94236.75;;;7.44;76.83
6435;BME280;3250;42.694;23.278;2023-04-03T05:15:38;94250.16;;;7.61;76.85
6435;BME280;3250;42.694;23.278;2023-04-03T05:18:03;94253.00;;;7.66;76.82
6435;BME280;3250;42.694;23.278;2023-04-03T05:20:30;94226.63;;;7.54;76.24
6435;BME280;3250;42.694;23.278;2023-04-03T05:22:55;94264.00;;;7.81;76.85
6435;BME280;3250;42.694;23.278;2023-04-03T05:25:20;94264.38;;;7.91;76.31
6435;BME280;3250;42.694;23.278;2023-04-03T05:27:46;94256.47;;;7.98;75.53
6435;BME280;3250;42.694;23.278;2023-04-03T05:30:11;94251.19;;;8.05;75.14
6435;BME280;3250;42.694;23.278;2023-04-03T05:32:37;94238.69;;;8.07;75.55
6435;BME280;3250;42.694;23.278;2023-04-03T05:35:03;94225.53;;;8.13;76.02
6435;BME280;3250;42.694;23.278;2023-04-03T05:37:28;94250.56;;;8.47;75.19
6435;BME280;3250;42.694;23.278;2023-04-03T05:39:54;94255.94;;;8.84;74.33
6435;BME280;3250;42.694;23.278;2023-04-03T05:42:20;94256.16;;;9.07;72.33
6435;BME280;3250;42.694;23.278;2023-04-03T05:44:46;94262.06;;;9.21;71.08
6435;BME280;3250;42.694;23.278;2023-04-03T05:47:12;94251.56;;;9.21;70.48
6435;BME280;3250;42.694;23.278;2023-04-03T05:49:38;94242.28;;;9.18;70.17
6435;BME280;3250;42.694;23.278;2023-04-03T05:52:10;94231.16;;;9.23;70.56
6435;BME280;3250;42.694;23.278;2023-04-03T05:54:42;94244.13;;;9.36;70.50
6435;BME280;3250;42.694;23.278;2023-04-03T05:57:08;94248.25;;;9.50;70.18
6435;BME280;3250;42.694;23.278;2023-04-03T05:59:33;94246.13;;;9.59;69.52
6435;BME280;3250;42.694;23.278;2023-04-03T06:01:58;94243.19;;;9.67;69.83
6435;BME280;3250;42.694;23.278;2023-04-03T06:04:24;94224.13;;;9.53;69.15
6435;BME280;3250;42.694;23.278;2023-04-03T06:06:54;94241.22;;;9.62;68.91
6435;BME280;3250;42.694;23.278;2023-04-03T06:09:23;94252.69;;;9.68;68.80
6435;BME280;3250;42.694;23.278;2023-04-03T06:11:48;94219.25;;;9.57;68.66
6435;BME280;3250;42.694;23.278;2023-04-03T06:14:14;94219.09;;;9.70;68.79
6435;BME280;3250;42.694;23.278;2023-04-03T06:16:40;94229.56;;;9.88;68.76
6435;BME280;3250;42.694;23.278;2023-04-03T06:19:07;94208.41;;;9.83;68.72
6435;BME280;3250;42.694;23.278;2023-04-03T06:21:33;94223.66;;;9.93;67.98
6435;BME280;3250;42.694;23.278;2023-04-03T06:23:59;94194.81;;;9.86;69.01
6435;BME280;3250;42.694;23.278;2023-04-03T06:26:24;94232.97;;;10.07;68.31
6435;BME280;3250;42.694;23.278;2023-04-03T06:28:50;94238.91;;;10.02;68.47
6435;BME280;3250;42.694;23.278;2023-04-03T06:31:15;94202.88;;;9.73;68.55
6435;BME280;3250;42.694;23.278;2023-04-03T06:33:42;94235.97;;;10.10;69.10
6435;BME280;3250;42.694;23.278;2023-04-03T06:36:09;94231.47;;;10.29;69.25
6435;BME280;3250;42.694;23.278;2023-04-03T06:38:35;94243.31;;;10.50;69.43
6435;BME280;3250;42.694;23.278;2023-04-03T06:41:00;94245.78;;;10.63;68.21
6435;BME280;3250;42.694;23.278;2023-04-03T06:43:26;94255.28;;;10.76;66.79
6435;BME280;3250;42.694;23.278;2023-04-03T06:45:52;94253.00;;;10.79;67.23
6435;BME280;3250;42.694;23.278;2023-04-03T06:48:17;94232.84;;;10.73;67.82
6435;BME280;3250;42.694;23.278;2023-04-03T06:50:43;94243.06;;;10.93;67.36
6435;BME280;3250;42.694;23.278;2023-04-03T06:53:09;94230.91;;;10.92;67.75
6435;BME280;3250;42.694;23.278;2023-04-03T06:55:35;94255.66;;;11.03;66.39
6435;BME280;3250;42.694;23.278;2023-04-03T06:58:01;94256.00;;;10.94;64.51
6435;BME280;3250;42.694;23.278;2023-04-03T07:00:26;94262.19;;;11.00;65.10
6435;BME280;3250;42.694;23.278;2023-04-03T07:02:52;94241.78;;;10.84;65.33
6435;BME280;3250;42.694;23.278;2023-04-03T07:05:17;94260.69;;;10.92;64.26
6435;BME280;3250;42.694;23.278;2023-04-03T07:07:43;94256.78;;;10.83;65.73
6435;BME280;3250;42.694;23.278;2023-04-03T07:10:09;94243.84;;;10.93;65.64
6435;BME280;3250;42.694;23.278;2023-04-03T07:12:35;94245.47;;;11.06;65.27
6435;BME280;3250;42.694;23.278;2023-04-03T07:15:01;94251.91;;;11.22;65.42
6435;BME280;3250;42.694;23.278;2023-04-03T07:17:26;94229.44;;;11.31;66.10
6435;BME280;3250;42.694;23.278;2023-04-03T07:19:52;94239.59;;;11.51;64.54
6435;BME280;3250;42.694;23.278;2023-04-03T07:22:17;94229.41;;;11.43;64.61
6435;BME280;3250;42.694;23.278;2023-04-03T07:24:43;94219.44;;;11.56;64.50
6435;BME280;3250;42.694;23.278;2023-04-03T07:27:09;94240.50;;;11.80;64.37
6435;BME280;3250;42.694;23.278;2023-04-03T07:29:35;94240.72;;;11.90;64.23
6435;BME280;3250;42.694;23.278;2023-04-03T07:32:01;94237.31;;;12.06;63.29
6435;BME280;3250;42.694;23.278;2023-04-03T07:34:27;94232.81;;;12.18;64.11
6435;BME280;3250;42.694;23.278;2023-04-03T07:36:52;94239.41;;;12.32;63.64
6435;BME280;3250;42.694;23.278;2023-04-03T07:39:18;94226.63;;;12.41;63.29
6435;BME280;3250;42.694;23.278;2023-04-03T07:41:43;94190.63;;;12.35;61.51
6435;BME280;3250;42.694;23.278;2023-04-03T07:44:08;94202.31;;;12.56;61.47
6435;BME280;3250;42.694;23.278;2023-04-03T07:46:37;94193.59;;;12.72;60.06
6435;BME280;3250;42.694;23.278;2023-04-03T07:49:03;94206.72;;;13.00;61.33
6435;BME280;3250;42.694;23.278;2023-04-03T07:51:29;94191.81;;;13.11;59.02
6435;BME280;3250;42.694;23.278;2023-04-03T07:53:55;94207.75;;;13.33;60.10
6435;BME280;3250;42.694;23.278;2023-04-03T07:56:20;94218.97;;;13.40;56.81
6435;BME280;3250;42.694;23.278;2023-04-03T07:58:46;94219.88;;;13.29;56.55
6435;BME280;3250;42.694;23.278;2023-04-03T08:01:12;94207.88;;;13.21;56.56
6435;BME280;3250;42.694;23.278;2023-04-03T08:03:38;94203.44;;;13.10;56.12
6435;BME280;3250;42.694;23.278;2023-04-03T08:06:06;94194.47;;;13.11;56.75
6435;BME280;3250;42.694;23.278;2023-04-03T08:08:33;94183.84;;;13.06;56.68
6435;BME280;3250;42.694;23.278;2023-04-03T08:11:00;94205.03;;;13.11;55.38
6435;BME280;3250;42.694;23.278;2023-04-03T08:13:27;94202.81;;;13.03;55.73
6435;BME280;3250;42.694;23.278;2023-04-03T08:15:53;94201.38;;;12.95;55.91
6435;BME280;3250;42.694;23.278;2023-04-03T08:18:18;94193.34;;;12.90;56.33
6435;BME280;3250;42.694;23.278;2023-04-03T08:20:47;94186.22;;;12.91;56.34
6435;BME280;3250;42.694;23.278;2023-04-03T08:23:12;94173.13;;;12.96;56.91
6435;BME280;3250;42.694;23.278;2023-04-03T08:25:39;94200.97;;;13.03;54.82
6435;BME280;3250;42.694;23.278;2023-04-03T08:28:05;94196.91;;;12.79;55.75
6435;BME280;3250;42.694;23.278;2023-04-03T08:30:33;94161.78;;;12.45;56.50
6435;BME280;3250;42.694;23.278;2023-04-03T08:33:00;94194.88;;;12.53;56.21
6435;BME280;3250;42.694;23.278;2023-04-03T08:35:26;94190.69;;;12.23;56.69
6435;BME280;3250;42.694;23.278;2023-04-03T08:37:52;94190.88;;;12.33;57.69
6435;BME280;3250;42.694;23.278;2023-04-03T08:40:17;94187.88;;;12.30;56.92
6435;BME280;3250;42.694;23.278;2023-04-03T08:45:20;94148.06;;;11.86;59.02
6435;BME280;3250;42.694;23.278;2023-04-03T08:50:43;94161.09;;;12.38;57.59
6435;BME280;3250;42.694;23.278;2023-04-03T08:53:32;94169.53;;;12.52;56.58
6435;BME280;3250;42.694;23.278;2023-04-03T08:56:03;94150.81;;;12.53;56.38
6435;BME280;3250;42.694;23.278;2023-04-03T08:58:33;94169.34;;;12.75;56.04
6435;BME280;3250;42.694;23.278;2023-04-03T09:01:05;94164.06;;;12.92;55.85
6435;BME280;3250;42.694;23.278;2023-04-03T09:03:40;94150.81;;;13.08;56.84
6435;BME280;3250;42.694;23.278;2023-04-03T09:06:22;94159.13;;;13.34;55.54
6435;BME280;3250;42.694;23.278;2023-04-03T09:09:15;94143.97;;;13.46;54.50
6435;BME280;3250;42.694;23.278;2023-04-03T09:17:50;94139.16;;;13.43;52.95
6435;BME280;3250;42.694;23.278;2023-04-03T09:22:45;94141.00;;;13.42;55.27
6435;BME280;3250;42.694;23.278;2023-04-03T09:25:43;94135.63;;;13.81;53.70
6435;BME280;3250;42.694;23.278;2023-04-03T09:28:09;94119.44;;;13.99;53.61
6435;BME280;3250;42.694;23.278;2023-04-03T09:30:35;94125.66;;;14.15;52.12
6435;BME280;3250;42.694;23.278;2023-04-03T09:33:01;94124.25;;;14.34;51.17
6435;BME280;3250;42.694;23.278;2023-04-03T09:35:30;94128.44;;;14.30;50.18
6435;BME280;3250;42.694;23.278;2023-04-03T09:40:40;94121.53;;;14.29;51.44
6435;BME280;3250;42.694;23.278;2023-04-03T09:43:30;94122.47;;;14.13;50.20
6435;BME280;3250;42.694;23.278;2023-04-03T09:46:45;94118.66;;;14.04;51.92
6435;BME280;3250;42.694;23.278;2023-04-03T09:48:56;94120.97;;;13.95;50.66
6435;BME280;3250;42.694;23.278;2023-04-03T09:51:25;94112.44;;;13.88;50.95
6435;BME280;3250;42.694;23.278;2023-04-03T09:53:52;94104.44;;;13.83;52.12
6435;BME280;3250;42.694;23.278;2023-04-03T09:56:21;94103.25;;;13.95;52.22
6435;BME280;3250;42.694;23.278;2023-04-03T10:01:30;94103.09;;;14.07;50.70
6435;BME280;3250;42.694;23.278;2023-04-03T10:04:09;94084.72;;;13.95;50.54
6435;BME280;3250;42.694;23.278;2023-04-03T10:06:44;94096.91;;;13.96;51.41
6435;BME280;3250;42.694;23.278;2023-04-03T10:09:23;94100.00;;;13.88;51.82
6435;BME280;3250;42.694;23.278;2023-04-03T10:12:10;94093.41;;;13.91;52.02
6435;BME280;3250;42.694;23.278;2023-04-03T10:14:54;94092.06;;;13.88;50.86
6435;BME280;3250;42.694;23.278;2023-04-03T10:18:25;94095.84;;;13.71;50.93
6435;BME280;3250;42.694;23.278;2023-04-03T10:20:47;94093.03;;;13.55;52.07
6435;BME280;3250;42.694;23.278;2023-04-03T10:23:45;94083.19;;;13.51;51.99
6435;BME280;3250;42.694;23.278;2023-04-03T10:32:54;94074.97;;;13.26;53.25
6435;BME280;3250;42.694;23.278;2023-04-03T10:35:50;94067.16;;;13.36;53.06
6435;BME280;3250;42.694;23.278;2023-04-03T10:41:20;94064.84;;;13.17;53.58
6435;BME280;3250;42.694;23.278;2023-04-03T10:46:34;94061.41;;;13.39;53.11
6435;BME280;3250;42.694;23.278;2023-04-03T10:49:30;94036.63;;;13.23;52.80
6435;BME280;3250;42.694;23.278;2023-04-03T10:52:09;94058.19;;;13.37;52.28
6435;BME280;3250;42.694;23.278;2023-04-03T10:54:42;94050.56;;;13.40;52.07
6435;BME280;3250;42.694;23.278;2023-04-03T10:57:12;94034.88;;;13.34;52.26
6435;BME280;3250;42.694;23.278;2023-04-03T10:59:45;94054.56;;;13.43;52.61
6435;BME280;3250;42.694;23.278;2023-04-03T11:02:30;94051.34;;;13.41;52.61
6435;BME280;3250;42.694;23.278;2023-04-03T11:07:57;94055.13;;;13.23;53.15
6435;BME280;3250;42.694;23.278;2023-04-03T11:13:15;94063.75;;;13.13;54.45
6435;BME280;3250;42.694;23.278;2023-04-03T11:15:43;94064.28;;;12.99;54.70
6435;BME280;3250;42.694;23.278;2023-04-03T11:18:28;94058.47;;;12.97;56.76
6435;BME280;3250;42.694;23.278;2023-04-03T11:21:10;94061.94;;;12.97;57.09
6435;BME280;3250;42.694;23.278;2023-04-03T11:23:41;94059.69;;;12.89;58.07
6435;BME280;3250;42.694;23.278;2023-04-03T11:26:20;94057.22;;;12.82;59.00
6435;BME280;3250;42.694;23.278;2023-04-03T11:28:52;94053.16;;;12.75;60.31
6435;BME280;3250;42.694;23.278;2023-04-03T11:34:12;94054.22;;;12.57;63.53
6435;BME280;3250;42.694;23.278;2023-04-03T11:36:56;94058.72;;;12.40;65.62
6435;BME280;3250;42.694;23.278;2023-04-03T11:39:36;94031.97;;;11.98;66.93
6435;BME280;3250;42.694;23.278;2023-04-03T11:47:51;94044.41;;;11.86;71.41
6435;BME280;3250;42.694;23.278;2023-04-03T11:50:51;94042.91;;;11.61;73.29
6435;BME280;3250;42.694;23.278;2023-04-03T11:58:33;94047.94;;;11.63;73.32
6435;BME280;3250;42.694;23.278;2023-04-03T12:03:57;94038.41;;;11.45;75.72
6435;BME280;3250;42.694;23.278;2023-04-03T12:08:57;94048.75;;;11.63;75.46
6435;BME280;3250;42.694;23.278;2023-04-03T12:11:45;94056.31;;;11.60;76.27
6435;BME280;3250;42.694;23.278;2023-04-03T12:14:17;94044.13;;;11.42;76.51
6435;BME280;3250;42.694;23.278;2023-04-03T12:16:46;94037.28;;;11.41;76.69
6435;BME280;3250;42.694;23.278;2023-04-03T12:26:48;94027.19;;;11.10;80.35
6435;BME280;3250;42.694;23.278;2023-04-03T12:40:25;94023.63;;;10.64;87.35
6435;BME280;3250;42.694;23.278;2023-04-03T12:43:02;94014.06;;;10.58;87.57
6435;BME280;3250;42.694;23.278;2023-04-03T12:46:07;94010.88;;;10.44;88.47
6435;BME280;3250;42.694;23.278;2023-04-03T12:48:55;94008.38;;;10.38;89.52
6435;BME280;3250;42.694;23.278;2023-04-03T12:51:43;94004.00;;;10.32;90.45
6435;BME280;3250;42.694;23.278;2023-04-03T12:56:43;93980.00;;;10.28;91.41
6435;BME280;3250;42.694;23.278;2023-04-03T12:59:18;93983.75;;;10.44;91.15
6435;BME280;3250;42.694;23.278;2023-04-03T13:01:56;93982.50;;;10.11;91.33
6435;BME280;3250;42.694;23.278;2023-04-03T13:04:24;93991.78;;;10.02;92.14
6435;BME280;3250;42.694;23.278;2023-04-03T13:06:50;93994.03;;;9.99;93.05
6435;BME280;3250;42.694;23.278;2023-04-03T13:11:50;93977.25;;;10.00;94.18
6435;BME280;3250;42.694;23.278;2023-04-03T13:14:25;93976.94;;;10.19;93.70
6435;BME280;3250;42.694;23.278;2023-04-03T13:19:25;93973.03;;;10.22;93.35
6435;BME280;3250;42.694;23.278;2023-04-03T13:22:00;94001.28;;;10.27;92.08
6435;BME280;3250;42.694;23.278;2023-04-03T13:24:27;93984.81;;;10.19;93.50
6435;BME280;3250;42.694;23.278;2023-04-03T13:26:54;93968.25;;;10.19;93.37
6435;BME280;3250;42.694;23.278;2023-04-03T13:29:39;93983.28;;;10.12;94.45
6435;BME280;3250;42.694;23.278;2023-04-03T13:32:05;93968.09;;;10.02;94.58
6435;BME280;3250;42.694;23.278;2023-04-03T13:34:42;93986.16;;;9.99;93.86
6435;BME280;3250;42.694;23.278;2023-04-03T13:37:27;93986.84;;;10.06;95.11
6435;BME280;3250;42.694;23.278;2023-04-03T13:40:03;93986.97;;;9.99;95.22
6435;BME280;3250;42.694;23.278;2023-04-03T13:42:32;93968.31;;;9.89;95.10
6435;BME280;3250;42.694;23.278;2023-04-03T13:47:46;93967.63;;;10.05;94.77
6435;BME280;3250;42.694;23.278;2023-04-03T13:52:44;93968.09;;;10.02;94.79
6435;BME280;3250;42.694;23.278;2023-04-03T13:58:00;93960.34;;;9.84;94.65
6435;BME280;3250;42.694;23.278;2023-04-03T14:02:55;93964.66;;;9.67;96.16
6435;BME280;3250;42.694;23.278;2023-04-03T14:05:22;93942.00;;;9.54;96.26
6435;BME280;3250;42.694;23.278;2023-04-03T14:07:48;93966.59;;;9.71;96.07
6435;BME280;3250;42.694;23.278;2023-04-03T14:10:14;93960.34;;;9.84;95.97
6435;BME280;3250;42.694;23.278;2023-04-03T14:12:39;93936.88;;;9.71;96.21
6435;BME280;3250;42.694;23.278;2023-04-03T14:15:29;93951.75;;;9.77;96.69
6435;BME280;3250;42.694;23.278;2023-04-03T14:17:56;93933.47;;;9.59;96.96
6435;BME280;3250;42.694;23.278;2023-04-03T14:20:25;93955.03;;;9.61;97.76
6435;BME280;3250;42.694;23.278;2023-04-03T14:22:51;93967.47;;;9.54;98.49
6435;BME280;3250;42.694;23.278;2023-04-03T14:25:17;93961.97;;;9.43;99.60
6435;BME280;3250;42.694;23.278;2023-04-03T14:27:47;93933.19;;;9.25;99.71
6435;BME280;3250;42.694;23.278;2023-04-03T14:32:52;93906.94;;;9.25;100.00
6435;BME280;3250;42.694;23.278;2023-04-03T14:35:18;93940.75;;;9.33;100.00
6435;BME280;3250;42.694;23.278;2023-04-03T14:37:43;93946.22;;;9.43;100.00
6435;BME280;3250;42.694;23.278;2023-04-03T14:40:13;93928.19;;;9.47;100.00
6435;BME280;3250;42.694;23.278;2023-04-03T14:42:39;93935.63;;;9.50;100.00
6435;BME280;3250;42.694;23.278;2023-04-03T14:45:09;93938.13;;;9.57;100.00
6435;BME280;3250;42.694;23.278;2023-04-03T14:47:41;93943.03;;;9.41;100.00
6435;BME280;3250;42.694;23.278;2023-04-03T14:50:11;93921.56;;;9.44;100.00
6435;BME280;3250;42.694;23.278;2023-04-03T14:52:38;93933.69;;;9.69;100.00
6435;BME280;3250;42.694;23.278;2023-04-03T14:55:05;93938.84;;;9.75;98.35
6435;BME280;3250;42.694;23.278;2023-04-03T14:57:31;93939.38;;;9.54;98.35
6435;BME280;3250;42.694;23.278;2023-04-03T14:59:57;93937.00;;;9.64;98.73
6435;BME280;3250;42.694;23.278;2023-04-03T15:04:51;93930.13;;;9.63;98.10
6435;BME280;3250;42.694;23.278;2023-04-03T15:07:16;93925.78;;;9.69;98.03